Map

Track Data

SID SEASON NUMBER BASIN SUBBASIN NAME ISO_TIME NATURE LAT LON WMO_WIND WMO_PRES WMO_AGENCY TRACK_TYPE DIST2LAND LANDFALL IFLAG USA_AGENCY USA_ATCF_ID USA_LAT USA_LON USA_RECORD USA_STATUS USA_WIND USA_PRES USA_SSHS USA_R34_NE USA_R34_SE USA_R34_SW USA_R34_NW USA_R50_NE USA_R50_SE USA_R50_SW USA_R50_NW USA_R64_NE USA_R64_SE USA_R64_SW USA_R64_NW USA_POCI USA_ROCI USA_RMW USA_EYE TOKYO_LAT TOKYO_LON TOKYO_GRADE TOKYO_WIND TOKYO_PRES TOKYO_R50_DIR TOKYO_R50_LONG TOKYO_R50_SHORT TOKYO_R30_DIR TOKYO_R30_LONG TOKYO_R30_SHORT TOKYO_LAND CMA_LAT CMA_LON CMA_CAT CMA_WIND CMA_PRES HKO_LAT HKO_LON HKO_CAT HKO_WIND HKO_PRES NEWDELHI_LAT NEWDELHI_LON NEWDELHI_GRADE NEWDELHI_WIND NEWDELHI_PRES NEWDELHI_CI NEWDELHI_DP NEWDELHI_POCI REUNION_LAT REUNION_LON REUNION_TYPE REUNION_WIND REUNION_PRES REUNION_TNUM REUNION_CI REUNION_RMW REUNION_R34_NE REUNION_R34_SE REUNION_R34_SW REUNION_R34_NW REUNION_R50_NE REUNION_R50_SE REUNION_R50_SW REUNION_R50_NW REUNION_R64_NE REUNION_R64_SE REUNION_R64_SW REUNION_R64_NW BOM_LAT BOM_LON BOM_TYPE BOM_WIND BOM_PRES BOM_TNUM BOM_CI BOM_RMW BOM_R34_NE BOM_R34_SE BOM_R34_SW BOM_R34_NW BOM_R50_NE BOM_R50_SE BOM_R50_SW BOM_R50_NW BOM_R64_NE BOM_R64_SE BOM_R64_SW BOM_R64_NW BOM_ROCI BOM_POCI BOM_EYE BOM_POS_METHOD BOM_PRES_METHOD NADI_LAT NADI_LON NADI_CAT NADI_WIND NADI_PRES WELLINGTON_LAT WELLINGTON_LON WELLINGTON_WIND WELLINGTON_PRES DS824_LAT DS824_LON DS824_STAGE DS824_WIND DS824_PRES TD9636_LAT TD9636_LON TD9636_STAGE TD9636_WIND TD9636_PRES TD9635_LAT TD9635_LON TD9635_WIND TD9635_PRES TD9635_ROCI NEUMANN_LAT NEUMANN_LON NEUMANN_CLASS NEUMANN_WIND NEUMANN_PRES MLC_LAT MLC_LON MLC_CLASS MLC_WIND MLC_PRES USA_GUST BOM_GUST BOM_GUST_PER REUNION_GUST REUNION_GUST_PER USA_SEAHGT USA_SEARAD_NE USA_SEARAD_SE USA_SEARAD_SW USA_SEARAD_NW STORM_SPEED STORM_DIR
1980345N09092 1980 105 NI BB NOT_NAMED 1980-12-10 08:00:00 NR 8.90000 92.0000 main 511 503 __________O___ -1 8.90000 92.0000 1 25 10 94
1980345N09092 1980 105 NI BB NOT_NAMED 1980-12-10 09:00:00 NR 8.88982 92.1629 main 496 468 __________P___ -1 8.88982 92.1629 1 25 9 92
1980345N09092 1980 105 NI BB NOT_NAMED 1980-12-10 12:00:00 NR 8.87660 92.6295 main 468 448 __________P___ -1 8.87660 92.6295 1 25 9 89
1980345N09092 1980 105 NI BB NOT_NAMED 1980-12-10 14:00:00 NR 8.90000 92.9000 main 448 442 __________O___ -1 8.90000 92.9000 1 25 8 83
1980345N09092 1980 105 NI BB NOT_NAMED 1980-12-10 15:00:00 NR 8.92618 93.0168 main 442 434 __________P___ -1 8.92618 93.0168 1 24 6 68
1980345N09092 1980 105 NI BB NOT_NAMED 1980-12-10 18:00:00 NR 9.05392 93.2904 main 444 439 __________P___ -1 9.05392 93.2904 1 23 5 55
1980345N09092 1980 105 NI BB NOT_NAMED 1980-12-10 21:00:00 NR 9.22502 93.4538 main 444 444 __________P___ -1 9.22502 93.4538 1 22 4 33
1980345N09092 1980 105 NI BB NOT_NAMED 1980-12-11 00:00:00 NR 9.40027 93.5140 main 465 465 __________P___ -1 9.40027 93.5140 1 20 3 7
1980345N09092 1980 105 NI BB NOT_NAMED 1980-12-11 02:00:00 NR 9.50000 93.5000 main 475 475 __________O___ -1 9.50000 93.5000 1 20 3 357
1980345N09092 1980 105 NI BB NOT_NAMED 1980-12-11 03:00:00 NR 9.53130 93.4865 main 475 475 __________P___ -1 9.53130 93.4865 1 20 2 309
1980345N09092 1980 105 NI BB NOT_NAMED 1980-12-11 06:00:00 NR 9.60372 93.3749 main 490 490 __________P___ -1 9.60372 93.3749 1 21 3 292
1980345N09092 1980 105 NI BB NOT_NAMED 1980-12-11 09:00:00 NR 9.65114 93.1858 main 509 509 __________P___ -1 9.65114 93.1858 1 22 4 281
1980345N09092 1980 105 NI BB NOT_NAMED 1980-12-11 12:00:00 NR 9.68290 92.9565 main 519 519 __________P___ -1 9.68290 92.9565 1 24 5 277
1980345N09092 1980 105 NI BB NOT_NAMED 1980-12-11 14:00:00 NR 9.70000 92.8000 main 530 530 __________O___ -1 9.70000 92.8000 1 25 5 275
1980345N09092 1980 105 NI BB NOT_NAMED 1980-12-11 15:00:00 NR 9.70063 92.7293 main 535 535 __________P___ -1 9.70063 92.7293 1 25 4 268
1980345N09092 1980 105 NI BB NOT_NAMED 1980-12-11 18:00:00 NR 9.69243 92.5085 main 547 547 __________P___ -1 9.69243 92.5085 1 25 4 269
1980345N09092 1980 105 NI BB NOT_NAMED 1980-12-11 21:00:00 NR 9.69334 92.2920 main 559 559 __________P___ -1 9.69334 92.2920 1 25 7 294
1980345N09092 1980 105 NI BB NOT_NAMED 1980-12-12 00:00:00 TS 9.95641 91.9011 main 612 612 O________OP___ jtwc_io IO051980 10.4000 91.5000 XX 25 -5 10.4000 91.5000 TC 25 9.73462 92.1017 1 25 8 314
1980345N09092 1980 105 NI BB NOT_NAMED 1980-12-12 02:00:00 TS 10.1373 91.8176 main 628 628 P________PO___ IO051980 10.4746 91.6353 XX 25 -5 10.4746 91.6353 TC 25 9.80000 92.0000 1 25 6 342
1980345N09092 1980 105 NI BB NOT_NAMED 1980-12-12 03:00:00 TS 10.2502 91.8019 main 646 646 P________PP___ IO051980 10.5100 91.7025 XX 25 -5 10.5100 91.7025 TC 25 9.86051 91.9510 1 25 5 10
1980345N09092 1980 105 NI BB NOT_NAMED 1980-12-12 06:00:00 TS 10.4316 91.8773 main 649 637 O________OP___ jtwc_io IO051980 10.6000 91.9000 XX 25 -5 10.6000 91.9000 TC 25 10.0947 91.8318 1 25 4 29
1980345N09092 1980 105 NI BB NOT_NAMED 1980-12-12 09:00:00 TS 10.5621 91.9831 main 637 622 P________PP___ IO051980 10.6575 92.0925 XX 25 -5 10.6575 92.0925 TC 25 10.3714 91.7642 1 25 3 44
1980345N09092 1980 105 NI BB NOT_NAMED 1980-12-12 12:00:00 TS 10.6813 92.1202 main 622 608 O________OP___ jtwc_io IO051980 10.7000 92.3000 XX 25 -5 10.7000 92.3000 TC 25 10.6439 91.7606 1 25 4 52
1980345N09092 1980 105 NI BB NOT_NAMED 1980-12-12 14:00:00 TS 10.7555 92.2356 main 608 604 P________PO___ IO051980 10.7333 92.4533 XX 25 -5 10.7333 92.4533 TC 25 10.8000 91.8000 1 25 4 59
1980345N09092 1980 105 NI BB NOT_NAMED 1980-12-12 15:00:00 TS 10.7857 92.2998 main 604 585 P________PP___ IO051980 10.7500 92.5350 XX 25 -5 10.7500 92.5350 TC 25 10.8571 91.8294 1 25 5 69
1980345N09092 1980 105 NI BB NOT_NAMED 1980-12-12 18:00:00 TS 10.8657 92.5238 main 585 575 O________OP___ jtwc_io IO051980 10.8000 92.8000 XX 25 -5 10.8000 92.8000 TC 25 10.9970 91.9712 1 25 5 74
1980345N09092 1980 105 NI BB NOT_NAMED 1980-12-12 21:00:00 TS 10.9324 92.8122 main 575 555 P________PP___ IO051980 10.8501 93.1300 XX 25 -5 10.8501 93.1300 TC 25 11.0969 92.1765 1 25 6 77
1980345N09092 1980 105 NI BB NOT_NAMED 1980-12-13 00:00:00 TS 10.9887 93.0744 main 555 552 O________OP___ jtwc_io IO051980 10.9000 93.4000 XX 25 -5 10.9000 93.4000 TC 25 11.1662 92.4233 1 25 5 76
1980345N09092 1980 105 NI BB NOT_NAMED 1980-12-13 02:00:00 TS 11.0258 93.1855 main 552 552 P________PO___ IO051980 10.9387 93.4783 XX 25 -5 10.9387 93.4783 TC 25 11.2000 92.6000 1 25 3 68
1980345N09092 1980 105 NI BB NOT_NAMED 1980-12-13 03:00:00 TS 11.0469 93.2272 main 552 539 P________PP___ IO051980 10.9574 93.4950 XX 25 -5 10.9574 93.4950 TC 25 11.2258 92.6914 1 25 2 63
1980345N09092 1980 105 NI BB NOT_NAMED 1980-12-13 06:00:00 TS 11.0966 93.3288 main 539 537 O________OP___ jtwc_io IO051980 11.0000 93.5000 XX 25 -5 11.0000 93.5000 TC 25 11.2899 92.9864 1 25 2 67
1980345N09092 1980 105 NI BB NOT_NAMED 1980-12-13 09:00:00 TS 11.1287 93.4285 main 537 535 P________PP___ IO051980 11.0300 93.5000 XX 25 -5 11.0300 93.5000 TC 25 11.3262 93.2855 1 25 2 86
1980345N09092 1980 105 NI BB NOT_NAMED 1980-12-13 12:00:00 TS 11.1085 93.5182 main 535 533 O________OP___ jtwc_io IO051980 11.0000 93.5000 XX 25 -5 11.0000 93.5000 TC 25 11.3256 93.5545 1 25 2 116
1980345N09092 1980 105 NI BB NOT_NAMED 1980-12-13 14:00:00 TS 11.0564 93.5836 main 533 533 P________PO___ IO051980 10.9346 93.5254 XX 25 -5 10.9346 93.5254 TC 25 11.3000 93.7000 1 25 3 134
1980345N09092 1980 105 NI BB NOT_NAMED 1980-12-13 15:00:00 TS 11.0178 93.6164 main 537 525 P________PP___ IO051980 10.8875 93.5425 XX 25 -5 10.8875 93.5425 TC 25 11.2784 93.7642 1 25 3 148
1980345N09092 1980 105 NI BB NOT_NAMED 1980-12-13 18:00:00 TS 10.8602 93.7059 main 525 514 O________OP___ jtwc_io IO051980 10.7000 93.6000 XX 25 -5 10.7000 93.6000 TC 25 11.1805 93.9177 1 25 4 155
1980345N09092 1980 105 NI BB NOT_NAMED 1980-12-13 21:00:00 TS 10.6493 93.7893 main 514 514 P________PP___ IO051980 10.4500 93.6801 XX 25 -5 10.4500 93.6801 TC 25 11.0478 94.0078 1 25 4 166
1980345N09092 1980 105 NI BB NOT_NAMED 1980-12-14 00:00:00 TS 10.4330 93.8094 main 514 514 O________OP___ jtwc_io IO051980 10.2000 93.7000 XX 25 -5 10.2000 93.7000 TC 25 10.8990 94.0282 1 25 4 0
1980345N09092 1980 105 NI BB NOT_NAMED 1980-12-14 02:00:00 TS 10.3155 93.7725 main 514 514 P________PO___ IO051980 10.0733 93.6587 XX 25 -5 10.0733 93.6587 TC 25 10.8000 94.0000 1 25 4 203
1980345N09092 1980 105 NI BB NOT_NAMED 1980-12-14 03:00:00 TS 10.2660 93.7429 main 525 525 P________PP___ IO051980 10.0199 93.6175 XX 25 -5 10.0199 93.6175 TC 25 10.7582 93.9937 1 25 4 229
1980345N09092 1980 105 NI BB NOT_NAMED 1980-12-14 06:00:00 TS 10.1443 93.5757 main 533 533 O________OP___ jtwc_io IO051980 9.90000 93.4000 XX 25 -5 9.90000 93.4000 TC 25 10.6329 93.9272 1 25 5 247
1980345N09092 1980 105 NI BB NOT_NAMED 1980-12-14 09:00:00 TS 10.0693 93.2692 main 545 544 P________PP___ IO051980 9.85013 93.0151 XX 25 -5 9.85013 93.0151 TC 25 10.5077 93.7774 1 25 7 257
1980345N09092 1980 105 NI BB NOT_NAMED 1980-12-14 12:00:00 TS 9.99431 92.9095 main 554 549 O________OP___ jtwc_io IO051980 9.80000 92.6000 XX 25 -5 9.80000 92.6000 TC 25 10.3829 93.5286 1 25 7 254
1980345N09092 1980 105 NI BB NOT_NAMED 1980-12-14 14:00:00 TS 9.91048 92.7101 main 555 555 P________PO___ IO051980 9.71572 92.4151 XX 25 -5 9.71572 92.4151 TC 25 10.3000 93.3000 1 25 6 245
1980345N09092 1980 105 NI BB NOT_NAMED 1980-12-14 15:00:00 TS 9.85946 92.6139 main 560 551 P________PP___ IO051980 9.66491 92.3350 XX 25 -5 9.66491 92.3350 TC 25 10.2486 93.1717 1 25 7 242
1980345N09092 1980 105 NI BB NOT_NAMED 1980-12-14 18:00:00 TS 9.69668 92.3021 main 559 557 O________OP___ jtwc_io IO051980 9.50000 92.1000 XX 25 -5 9.50000 92.1000 TC 25 10.0901 92.7062 1 25 7 245
1980345N09092 1980 105 NI BB NOT_NAMED 1980-12-14 21:00:00 TS 9.55319 91.9357 main 577 568 P________PP___ IO051980 9.35742 91.8301 XX 25 -5 9.35742 91.8301 TC 25 9.94472 92.1469 1 25 8 250
1980345N09092 1980 105 NI BB NOT_NAMED 1980-12-15 00:00:00 TS 9.41255 91.5095 main 589 589 O________OP___ jtwc_io IO051980 9.20000 91.5000 XX 25 -5 9.20000 91.5000 TC 25 9.83765 91.5284 1 25 9 252
1980345N09092 1980 105 NI BB NOT_NAMED 1980-12-15 02:00:00 TS 9.30913 91.1861 main 605 605 P________PO___ IO051980 9.06370 91.2291 XX 25 -5 9.06370 91.2291 TC 25 9.80000 91.1000 1 25 10 253
1980345N09092 1980 105 NI BB NOT_NAMED 1980-12-15 03:00:00 TS 9.26759 91.0199 main 621 621 P________PP___ IO051980 8.99249 91.0799 XX 25 -5 8.99249 91.0799 TC 25 9.81778 90.8997 1 25 10 259
1980345N09092 1980 105 NI BB NOT_NAMED 1980-12-15 06:00:00 TS 9.17447 90.4925 main 657 657 O________OP___ jtwc_io IO051980 8.80000 90.6000 XX 25 -5 8.80000 90.6000 TC 25 9.92341 90.2774 1 25 11 263
1980345N09092 1980 105 NI BB NOT_NAMED 1980-12-15 09:00:00 TS 9.13470 89.9476 main 704 704 P________PP___ IO051980 8.67746 90.1076 XX 25 -5 8.67746 90.1076 TC 25 10.0492 89.6276 1 25 11 266
1980345N09092 1980 105 NI BB NOT_NAMED 1980-12-15 12:00:00 TS 9.10670 89.3854 main 750 750 O________OP___ jtwc_io IO051980 8.60000 89.6000 XX 25 -5 8.60000 89.6000 TC 25 10.1201 88.9563 1 25 11 266
1980345N09092 1980 105 NI BB NOT_NAMED 1980-12-15 14:00:00 TS 9.06885 89.0111 main 788 788 P________PO___ IO051980 8.55328 89.2667 XX 26 -5 8.55328 89.2667 TC 26 10.1000 88.5000 1 25 11 263
1980345N09092 1980 105 NI BB NOT_NAMED 1980-12-15 15:00:00 TS 9.03388 88.8218 main 786 730 P________PP___ IO051980 8.53494 89.1000 XX 27 -5 8.53494 89.1000 TC 27 10.0318 88.2655 1 25 12 258
1980345N09092 1980 105 NI BB NOT_NAMED 1980-12-15 18:00:00 TS 8.91114 88.2494 main 719 663 O________OP___ jtwc_io IO051980 8.50000 88.6000 XX 30 -5 8.50000 88.6000 TC 30 9.73342 87.5481 1 26 12 257
1980345N09092 1980 105 NI BB NOT_NAMED 1980-12-15 21:00:00 TS 8.78159 87.6867 main 663 596 P________PP___ IO051980 8.49237 88.1150 XX 30 -5 8.49237 88.1150 TC 30 9.36001 86.8302 1 27 12 258
1980345N09092 1980 105 NI BB NOT_NAMED 1980-12-16 00:00:00 TS 8.66529 87.1122 main 596 562 O________OP___ jtwc_io IO051980 8.50000 87.6000 XX 30 -5 8.50000 87.6000 TC 30 8.99588 86.1367 1 29 12 259
1980345N09092 1980 105 NI BB NOT_NAMED 1980-12-16 02:00:00 TS 8.59995 86.7178 main 551 540 P________PO___ IO051980 8.49992 87.2267 XX 31 -5 8.49992 87.2267 TC 31 8.80000 85.7000 1 30 12 262
1980345N09092 1980 105 NI BB NOT_NAMED 1980-12-16 03:00:00 TS 8.58203 86.5169 main 529 462 P________PP___ IO051980 8.49990 87.0300 XX 32 -5 8.49990 87.0300 TC 32 8.74628 85.4908 1 30 12 266
1980345N09092 1980 105 NI BB NOT_NAMED 1980-12-16 06:00:00 TS 8.54866 85.8977 main 462 398 O________OP___ jtwc_io IO051980 8.50000 86.4000 XX 35 -5 8.50000 86.4000 TC 35 8.64599 84.8932 1 31 12 268
1980345N09092 1980 105 NI BB NOT_NAMED 1980-12-16 09:00:00 TS 8.53669 85.2561 main 398 324 P________PP___ IO051980 8.49995 85.7150 XX 35 -5 8.49995 85.7150 TC 35 8.61016 84.3382 1 32 13 269
1980345N09092 1980 105 NI BB NOT_NAMED 1980-12-16 12:00:00 TS 8.53477 84.6076 main 324 283 O________OP___ jtwc_io IO051980 8.50000 85.0000 XX 35 -5 8.50000 85.0000 TC 35 8.60430 83.8229 1 34 13 270
1980345N09092 1980 105 NI BB NOT_NAMED 1980-12-16 14:00:00 TS 8.53328 84.1853 main 283 262 P________PO___ IO051980 8.49992 84.5279 XX 35 -5 8.49992 84.5279 TC 35 8.60000 83.5000 2 35 13 269
1980345N09092 1980 105 NI BB NOT_NAMED 1980-12-16 15:00:00 TS 8.52809 83.9751 main 262 203 P________PP___ IO051980 8.49991 84.2925 XX 35 -5 8.49991 84.2925 TC 35 8.58443 83.3404 2 35 12 269
1980345N09092 1980 105 NI BB NOT_NAMED 1980-12-16 18:00:00 TS 8.51279 83.3629 main 203 143 O________OP___ jtwc_io IO051980 8.50000 83.6000 XX 35 -5 8.50000 83.6000 TC 35 8.53838 82.8885 2 35 12 268
1980345N09092 1980 105 NI BB NOT_NAMED 1980-12-16 21:00:00 TS 8.49688 82.7841 main 143 95 P________PP___ IO051980 8.49985 82.9425 XX 35 -5 8.49985 82.9425 TC 35 8.49092 82.4674 2 35 11 268
1980345N09092 1980 105 NI BB NOT_NAMED 1980-12-17 00:00:00 TS 8.47962 82.2215 main 86 56 O________OP___ jtwc_io IO051980 8.50000 82.3000 XX 35 -5 8.50000 82.3000 TC 35 8.43886 82.0646 2 35 11 268
1980345N09092 1980 105 NI BB NOT_NAMED 1980-12-17 02:00:00 TS 8.46662 81.8408 main 45 34 P________PO___ IO051980 8.49993 81.8612 XX 33 -5 8.49993 81.8612 TC 33 8.40000 81.8000 2 35 11 268
1980345N09092 1980 105 NI BB NOT_NAMED 1980-12-17 03:00:00 TS 8.45973 81.6560 main 34 0 P________PP___ IO051980 8.49993 81.6425 XX 32 -5 8.49993 81.6425 TC 32 8.37933 81.6830 2 34 10 267
1980345N09092 1980 105 NI BB NOT_NAMED 1980-12-17 06:00:00 TS 8.42496 81.1383 main 0 0 O________OP___ jtwc_io IO051980 8.50000 81.0000 XX 30 -5 8.50000 81.0000 TC 30 8.31239 81.3457 2 31 10 265
1980345N09092 1980 105 NI BB NOT_NAMED 1980-12-17 09:00:00 TS 8.36928 80.6888 main 0 0 P________PP___ IO051980 8.50015 80.3900 XX 27 -5 8.50015 80.3900 TC 27 8.23840 80.9875 2 29 8 259
1980345N09092 1980 105 NI BB NOT_NAMED 1980-12-17 12:00:00 TS 8.27175 80.3036 main 0 0 O________OP___ jtwc_io IO051980 8.50000 79.8000 XX 25 -5 8.50000 79.8000 TC 25 8.15762 80.5554 2 26 7 241
1980345N09092 1980 105 NI BB NOT_NAMED 1980-12-17 14:00:00 NR 8.10000 80.2000 main 0 0 __________O___ IO051980 XX -5 TC 8.10000 80.2000 1 25 8 237
1980345N09092 1980 105 NI BB NOT_NAMED 1980-12-17 15:00:00 NR 8.06540 79.9758 main 0 0 __________P___ IO051980 XX -5 TC 8.06540 79.9758 1 25 15 262
1980345N09092 1980 105 NI BB NOT_NAMED 1980-12-17 18:00:00 NR 7.95391 79.2105 main 55 55 __________P___ -1 7.95391 79.2105 1 25 16 262
1980345N09092 1980 105 NI BB NOT_NAMED 1980-12-17 21:00:00 NR 7.84259 78.3669 main 74 35 __________P___ -1 7.84259 78.3669 1 25 17 263
1980345N09092 1980 105 NI AS NOT_NAMED 1980-12-18 00:00:00 NR 7.74701 77.5236 main 44 44 __________P___ -1 7.74701 77.5236 1 25 16 264
1980345N09092 1980 105 NI AS NOT_NAMED 1980-12-18 02:00:00 NR 7.70000 77.0000 main 55 55 __________O___ -1 7.70000 77.0000 1 25 15 265
1980345N09092 1980 105 NI AS NOT_NAMED 1980-12-18 03:00:00 NR 7.68143 76.7721 main 71 71 __________P___ -1 7.68143 76.7721 1 25 13 266
1980345N09092 1980 105 NI AS NOT_NAMED 1980-12-18 06:00:00 NR 7.64604 76.1354 main 133 133 __________P___ -1 7.64604 76.1354 1 25 12 268
1980345N09092 1980 105 NI AS NOT_NAMED 1980-12-18 09:00:00 NR 7.64108 75.5592 main 172 172 __________P___ -1 7.64108 75.5592 1 25 11 271
1980345N09092 1980 105 NI AS NOT_NAMED 1980-12-18 12:00:00 NR 7.66640 75.0313 main 212 212 __________P___ -1 7.66640 75.0313 1 25 10 274
1980345N09092 1980 105 NI AS NOT_NAMED 1980-12-18 14:00:00 NR 7.70000 74.7000 main 239 239 __________O___ -1 7.70000 74.7000 1 25 10 275
1980345N09092 1980 105 NI AS NOT_NAMED 1980-12-18 15:00:00 NR 7.71235 74.5381 main 258 258 __________P___ -1 7.71235 74.5381 1 25 9 276
1980345N09092 1980 105 NI AS NOT_NAMED 1980-12-18 18:00:00 NR 7.76857 74.0820 main 291 291 __________P___ -1 7.76857 74.0820 1 25 9 279
1980345N09092 1980 105 NI AS NOT_NAMED 1980-12-18 21:00:00 NR 7.85844 73.6484 main 338 338 __________P___ -1 7.85844 73.6484 1 25 9 284
1980345N09092 1980 105 NI AS NOT_NAMED 1980-12-19 00:00:00 NR 7.98824 73.2095 main 375 375 __________P___ -1 7.98824 73.2095 1 25 9 288
1980345N09092 1980 105 NI AS NOT_NAMED 1980-12-19 02:00:00 NR 8.10000 72.9000 main 401 401 __________O___ -1 8.10000 72.9000 1 25 10 289
1980345N09092 1980 105 NI AS NOT_NAMED 1980-12-19 03:00:00 NR 8.15340 72.7263 main 418 418 __________P___ -1 8.15340 72.7263 1 25 11 289
1980345N09092 1980 105 NI AS NOT_NAMED 1980-12-19 06:00:00 NR 8.34260 72.1817 main 467 464 __________P___ -1 8.34260 72.1817 1 25 12 291
1980345N09092 1980 105 NI AS NOT_NAMED 1980-12-19 09:00:00 NR 8.58005 71.6188 main 524 524 __________P___ -1 8.58005 71.6188 1 25 12 296
1980345N09092 1980 105 NI AS NOT_NAMED 1980-12-19 12:00:00 NR 8.87198 71.0597 main 567 567 __________P___ -1 8.87198 71.0597 1 25 13 300
1980345N09092 1980 105 NI AS NOT_NAMED 1980-12-19 14:00:00 NR 9.10000 70.7000 main 589 589 __________O___ -1 9.10000 70.7000 1 25 13 304
1980345N09092 1980 105 NI AS NOT_NAMED 1980-12-19 15:00:00 NR 9.22461 70.5263 main 602 596 __________P___ -1 9.22461 70.5263 1 25 13 309
1980345N09092 1980 105 NI AS NOT_NAMED 1980-12-19 18:00:00 NR 9.63587 70.0281 main 628 623 __________P___ -1 9.63587 70.0281 1 25 13 312
1980345N09092 1980 105 NI AS NOT_NAMED 1980-12-19 21:00:00 NR 10.0905 69.5563 main 642 642 __________P___ -1 10.0905 69.5563 1 25 13 316
1980345N09092 1980 105 NI AS NOT_NAMED 1980-12-20 00:00:00 NR 10.5722 69.1003 main 668 668 __________P___ -1 10.5722 69.1003 1 25 13 317
1980345N09092 1980 105 NI AS NOT_NAMED 1980-12-20 02:00:00 NR 10.9000 68.8000 main 687 __________O___ -1 10.9000 68.8000 1 25 13 318

About IBTrACS Database

This database is a web-friendly format of International Best Track Archive for Climate Stewardship (IBTrACS), a global best track data archive curated by NOAA dating back to 1842.

Updated: 2021-12-06